sensor_id;sensor_type;location;lat;lon;timestamp;pressure;altitude;pressure_sealevel;temperature;humidity
10852;BME280;5479;52.046;6.314;2023-08-07T00:01:15;101043.94;;;13.81;100.00
10852;BME280;5479;52.046;6.314;2023-08-07T00:03:43;101033.50;;;13.78;100.00
10852;BME280;5479;52.046;6.314;2023-08-07T00:06:11;101030.75;;;13.80;100.00
10852;BME280;5479;52.046;6.314;2023-08-07T00:08:39;101037.88;;;13.79;100.00
10852;BME280;5479;52.046;6.314;2023-08-07T00:11:07;101029.97;;;13.78;100.00
10852;BME280;5479;52.046;6.314;2023-08-07T00:13:36;101029.97;;;13.78;100.00
10852;BME280;5479;52.046;6.314;2023-08-07T00:16:04;101034.34;;;13.79;100.00
10852;BME280;5479;52.046;6.314;2023-08-07T00:18:34;101029.34;;;13.74;100.00
10852;BME280;5479;52.046;6.314;2023-08-07T00:21:02;101028.28;;;13.77;100.00
10852;BME280;5479;52.046;6.314;2023-08-07T00:23:29;101027.44;;;13.76;100.00
10852;BME280;5479;52.046;6.314;2023-08-07T00:25:57;101024.03;;;13.74;100.00
10852;BME280;5479;52.046;6.314;2023-08-07T00:28:25;101021.03;;;13.79;100.00
10852;BME280;5479;52.046;6.314;2023-08-07T00:30:55;101015.19;;;13.74;100.00
10852;BME280;5479;52.046;6.314;2023-08-07T00:33:23;101019.97;;;13.81;100.00
10852;BME280;5479;52.046;6.314;2023-08-07T00:35:52;101026.38;;;13.79;100.00
10852;BME280;5479;52.046;6.314;2023-08-07T00:38:20;101024.66;;;13.78;100.00
10852;BME280;5479;52.046;6.314;2023-08-07T00:40:48;101025.63;;;13.77;100.00
10852;BME280;5479;52.046;6.314;2023-08-07T00:43:16;101026.38;;;13.79;100.00
10852;BME280;5479;52.046;6.314;2023-08-07T00:45:46;101023.91;;;13.76;100.00
10852;BME280;5479;52.046;6.314;2023-08-07T00:48:15;101034.22;;;13.68;100.00
10852;BME280;5479;52.046;6.314;2023-08-07T00:50:44;101030.41;;;13.72;100.00
10852;BME280;5479;52.046;6.314;2023-08-07T00:53:15;101038.41;;;13.72;100.00
10852;BME280;5479;52.046;6.314;2023-08-07T00:55:44;101031.69;;;13.79;100.00
10852;BME280;5479;52.046;6.314;2023-08-07T00:58:12;101028.50;;;13.74;100.00
10852;BME280;5479;52.046;6.314;2023-08-07T01:00:41;101035.22;;;13.79;100.00
10852;BME280;5479;52.046;6.314;2023-08-07T01:03:11;101035.53;;;13.75;100.00
10852;BME280;5479;52.046;6.314;2023-08-07T01:05:40;101029.97;;;13.78;100.00
10852;BME280;5479;52.046;6.314;2023-08-07T01:08:08;101034.22;;;13.80;100.00
10852;BME280;5479;52.046;6.314;2023-08-07T01:10:55;101047.88;;;13.88;100.00
10852;BME280;5479;52.046;6.314;2023-08-07T01:13:34;101050.97;;;13.82;100.00
10852;BME280;5479;52.046;6.314;2023-08-07T01:16:07;101049.06;;;13.84;100.00
10852;BME280;5479;52.046;6.314;2023-08-07T01:18:40;101061.09;;;13.90;100.00
10852;BME280;5479;52.046;6.314;2023-08-07T01:21:17;101055.97;;;13.87;100.00
10852;BME280;5479;52.046;6.314;2023-08-07T01:23:47;101056.91;;;13.86;100.00
10852;BME280;5479;52.046;6.314;2023-08-07T01:26:18;101056.91;;;13.86;100.00
10852;BME280;5479;52.046;6.314;2023-08-07T01:28:51;101056.38;;;13.81;100.00
10852;BME280;5479;52.046;6.314;2023-08-07T01:31:22;101063.31;;;13.83;100.00
10852;BME280;5479;52.046;6.314;2023-08-07T01:33:57;101055.00;;;13.75;100.00
10852;BME280;5479;52.046;6.314;2023-08-07T01:36:27;101055.19;;;13.72;100.00
10852;BME280;5479;52.046;6.314;2023-08-07T01:38:59;101068.50;;;13.72;100.00
10852;BME280;5479;52.046;6.314;2023-08-07T01:41:28;101058.91;;;13.70;100.00
10852;BME280;5479;52.046;6.314;2023-08-07T01:43:57;101065.31;;;13.67;100.00
10852;BME280;5479;52.046;6.314;2023-08-07T01:46:25;101062.22;;;13.61;100.00
10852;BME280;5479;52.046;6.314;2023-08-07T01:48:53;101059.09;;;13.54;100.00
10852;BME280;5479;52.046;6.314;2023-08-07T01:51:21;101061.03;;;13.52;100.00
10852;BME280;5479;52.046;6.314;2023-08-07T01:53:49;101063.16;;;13.47;100.00
10852;BME280;5479;52.046;6.314;2023-08-07T01:56:18;101065.06;;;13.45;100.00
10852;BME280;5479;52.046;6.314;2023-08-07T01:58:46;101071.22;;;13.46;100.00
10852;BME280;5479;52.046;6.314;2023-08-07T02:01:14;101073.13;;;13.44;100.00
10852;BME280;5479;52.046;6.314;2023-08-07T02:03:43;101074.22;;;13.54;100.00
10852;BME280;5479;52.046;6.314;2023-08-07T02:06:11;101074.66;;;13.48;100.00
10852;BME280;5479;52.046;6.314;2023-08-07T02:08:41;101072.72;;;13.50;100.00
10852;BME280;5479;52.046;6.314;2023-08-07T02:11:11;101077.19;;;13.49;100.00
10852;BME280;5479;52.046;6.314;2023-08-07T02:13:41;101076.88;;;13.54;100.00
10852;BME280;5479;52.046;6.314;2023-08-07T02:16:11;101083.56;;;13.47;100.00
10852;BME280;5479;52.046;6.314;2023-08-07T02:18:40;101091.47;;;13.48;100.00
10852;BME280;5479;52.046;6.314;2023-08-07T02:21:08;101091.25;;;13.51;100.00
10852;BME280;5479;52.046;6.314;2023-08-07T02:23:36;101096.78;;;13.48;100.00
10852;BME280;5479;52.046;6.314;2023-08-07T02:26:04;101102.59;;;13.41;100.00
10852;BME280;5479;52.046;6.314;2023-08-07T02:28:32;101107.84;;;13.42;100.00
10852;BME280;5479;52.046;6.314;2023-08-07T02:31:01;101107.09;;;13.40;100.00
10852;BME280;5479;52.046;6.314;2023-08-07T02:33:29;101102.72;;;13.39;100.00
10852;BME280;5479;52.046;6.314;2023-08-07T02:35:57;101107.91;;;13.41;100.00
10852;BME280;5479;52.046;6.314;2023-08-07T02:38:25;101106.09;;;13.41;100.00
10852;BME280;5479;52.046;6.314;2023-08-07T02:40:53;101100.13;;;13.38;100.00
10852;BME280;5479;52.046;6.314;2023-08-07T02:43:21;101106.22;;;13.40;100.00
10852;BME280;5479;52.046;6.314;2023-08-07T02:45:49;101106.22;;;13.40;100.00
10852;BME280;5479;52.046;6.314;2023-08-07T02:48:18;101092.94;;;13.40;100.00
10852;BME280;5479;52.046;6.314;2023-08-07T02:50:46;101107.38;;;13.36;100.00
10852;BME280;5479;52.046;6.314;2023-08-07T02:53:14;101102.78;;;13.38;100.00
10852;BME280;5479;52.046;6.314;2023-08-07T02:55:43;101102.59;;;13.41;100.00
10852;BME280;5479;52.046;6.314;2023-08-07T02:58:11;101104.09;;;13.45;100.00
10852;BME280;5479;52.046;6.314;2023-08-07T03:00:38;101102.59;;;13.41;100.00
10852;BME280;5479;52.046;6.314;2023-08-07T03:03:07;101101.00;;;13.38;100.00
10852;BME280;5479;52.046;6.314;2023-08-07T03:05:37;101098.25;;;13.40;100.00
10852;BME280;5479;52.046;6.314;2023-08-07T03:08:05;101103.38;;;13.43;100.00
10852;BME280;5479;52.046;6.314;2023-08-07T03:10:32;101107.28;;;13.37;100.00
10852;BME280;5479;52.046;6.314;2023-08-07T03:13:00;101102.59;;;13.41;100.00
10852;BME280;5479;52.046;6.314;2023-08-07T03:15:28;101104.81;;;13.34;100.00
10852;BME280;5479;52.046;6.314;2023-08-07T03:17:56;101103.97;;;13.34;100.00
10852;BME280;5479;52.046;6.314;2023-08-07T03:20:24;101098.75;;;13.32;100.00
10852;BME280;5479;52.046;6.314;2023-08-07T03:22:53;101093.31;;;13.34;100.00
10852;BME280;5479;52.046;6.314;2023-08-07T03:25:21;101087.81;;;13.37;100.00
10852;BME280;5479;52.046;6.314;2023-08-07T03:27:49;101082.47;;;13.37;100.00
10852;BME280;5479;52.046;6.314;2023-08-07T03:30:17;101082.69;;;13.34;100.00
10852;BME280;5479;52.046;6.314;2023-08-07T03:32:45;101080.13;;;13.32;100.00
10852;BME280;5479;52.046;6.314;2023-08-07T03:35:13;101073.19;;;13.29;100.00
10852;BME280;5479;52.046;6.314;2023-08-07T03:37:41;101079.09;;;13.35;100.00
10852;BME280;5479;52.046;6.314;2023-08-07T03:40:11;101080.78;;;13.36;100.00
10852;BME280;5479;52.046;6.314;2023-08-07T03:42:40;101075.44;;;13.36;100.00
10852;BME280;5479;52.046;6.314;2023-08-07T03:45:09;101072.03;;;13.34;100.00
10852;BME280;5479;52.046;6.314;2023-08-07T03:47:38;101071.00;;;13.36;100.00
10852;BME280;5479;52.046;6.314;2023-08-07T03:50:07;101064.59;;;13.39;100.00
10852;BME280;5479;52.046;6.314;2023-08-07T03:52:35;101063.94;;;13.35;100.00
10852;BME280;5479;52.046;6.314;2023-08-07T03:55:03;101073.97;;;13.32;100.00
10852;BME280;5479;52.046;6.314;2023-08-07T03:57:32;101066.53;;;13.37;100.00
10852;BME280;5479;52.046;6.314;2023-08-07T04:00:00;101062.06;;;13.37;100.00
10852;BME280;5479;52.046;6.314;2023-08-07T04:02:29;101060.53;;;13.33;100.00
10852;BME280;5479;52.046;6.314;2023-08-07T04:04:57;101058.44;;;13.38;100.00
10852;BME280;5479;52.046;6.314;2023-08-07T04:07:25;101051.63;;;13.34;100.00
10852;BME280;5479;52.046;6.314;2023-08-07T04:09:53;101050.75;;;13.34;100.00
10852;BME280;5479;52.046;6.314;2023-08-07T04:12:22;101054.81;;;13.39;100.00
10852;BME280;5479;52.046;6.314;2023-08-07T04:14:52;101059.28;;;13.39;100.00
10852;BME280;5479;52.046;6.314;2023-08-07T04:17:19;101058.53;;;13.37;100.00
10852;BME280;5479;52.046;6.314;2023-08-07T04:19:47;101064.59;;;13.39;100.00
10852;BME280;5479;52.046;6.314;2023-08-07T04:22:15;101057.38;;;13.41;100.00
10852;BME280;5479;52.046;6.314;2023-08-07T04:24:42;101067.19;;;13.40;100.00
10852;BME280;5479;52.046;6.314;2023-08-07T04:27:10;101070.31;;;13.32;100.00
10852;BME280;5479;52.046;6.314;2023-08-07T04:29:38;101080.56;;;13.39;100.00
10852;BME280;5479;52.046;6.314;2023-08-07T04:32:09;101072.50;;;13.40;100.00
10852;BME280;5479;52.046;6.314;2023-08-07T04:34:37;101075.25;;;13.39;100.00
10852;BME280;5479;52.046;6.314;2023-08-07T04:37:05;101074.72;;;13.46;100.00
10852;BME280;5479;52.046;6.314;2023-08-07T04:39:33;101077.31;;;13.48;100.00
10852;BME280;5479;52.046;6.314;2023-08-07T04:42:03;101088.34;;;13.42;100.00
10852;BME280;5479;52.046;6.314;2023-08-07T04:44:32;101089.94;;;13.44;100.00
10852;BME280;5479;52.046;6.314;2023-08-07T04:47:00;101089.22;;;13.55;100.00
10852;BME280;5479;52.046;6.314;2023-08-07T04:49:29;101088.09;;;13.59;100.00
10852;BME280;5479;52.046;6.314;2023-08-07T04:51:57;101085.75;;;13.67;100.00
10852;BME280;5479;52.046;6.314;2023-08-07T04:54:25;101098.84;;;13.70;100.00
10852;BME280;5479;52.046;6.314;2023-08-07T04:56:53;101091.84;;;13.69;100.00
10852;BME280;5479;52.046;6.314;2023-08-07T04:59:23;101088.31;;;13.68;100.00
10852;BME280;5479;52.046;6.314;2023-08-07T05:01:51;101103.00;;;13.74;100.00
10852;BME280;5479;52.046;6.314;2023-08-07T05:04:20;101100.69;;;13.82;100.00
10852;BME280;5479;52.046;6.314;2023-08-07T05:06:49;101106.75;;;13.84;100.00
10852;BME280;5479;52.046;6.314;2023-08-07T05:09:17;101105.47;;;13.89;100.00
10852;BME280;5479;52.046;6.314;2023-08-07T05:11:45;101108.81;;;13.93;100.00
10852;BME280;5479;52.046;6.314;2023-08-07T05:14:14;101113.91;;;13.96;100.00
10852;BME280;5479;52.046;6.314;2023-08-07T05:16:43;101117.22;;;14.00;100.00
10852;BME280;5479;52.046;6.314;2023-08-07T05:19:11;101120.06;;;13.97;100.00
10852;BME280;5479;52.046;6.314;2023-08-07T05:21:40;101120.53;;;14.03;100.00
10852;BME280;5479;52.046;6.314;2023-08-07T05:24:09;101122.84;;;13.95;100.00
10852;BME280;5479;52.046;6.314;2023-08-07T05:26:37;101124.78;;;13.93;100.00
10852;BME280;5479;52.046;6.314;2023-08-07T05:29:05;101127.78;;;14.01;100.00
10852;BME280;5479;52.046;6.314;2023-08-07T05:31:33;101131.16;;;14.03;100.00
10852;BME280;5479;52.046;6.314;2023-08-07T05:34:01;101134.50;;;14.07;100.00
10852;BME280;5479;52.046;6.314;2023-08-07T05:36:29;101135.66;;;14.15;100.00
10852;BME280;5479;52.046;6.314;2023-08-07T05:38:59;101141.41;;;14.09;100.00
10852;BME280;5479;52.046;6.314;2023-08-07T05:41:28;101133.75;;;14.17;100.00
10852;BME280;5479;52.046;6.314;2023-08-07T05:43:56;101136.94;;;14.10;100.00
10852;BME280;5479;52.046;6.314;2023-08-07T05:46:24;101143.22;;;14.09;100.00
10852;BME280;5479;52.046;6.314;2023-08-07T05:48:52;101148.22;;;14.13;100.00
10852;BME280;5479;52.046;6.314;2023-08-07T05:51:20;101152.28;;;14.19;100.00
10852;BME280;5479;52.046;6.314;2023-08-07T05:53:48;101152.19;;;14.20;100.00
10852;BME280;5479;52.046;6.314;2023-08-07T05:56:16;101160.19;;;14.20;100.00
10852;BME280;5479;52.046;6.314;2023-08-07T05:58:46;101165.50;;;14.20;100.00
10852;BME280;5479;52.046;6.314;2023-08-07T06:01:16;101163.78;;;14.19;100.00
10852;BME280;5479;52.046;6.314;2023-08-07T06:03:44;101176.78;;;14.24;100.00
10852;BME280;5479;52.046;6.314;2023-08-07T06:06:13;101173.91;;;14.27;100.00
10852;BME280;5479;52.046;6.314;2023-08-07T06:08:40;101171.66;;;14.21;100.00
10852;BME280;5479;52.046;6.314;2023-08-07T06:11:09;101175.09;;;14.23;100.00
10852;BME280;5479;52.046;6.314;2023-08-07T06:13:39;101177.22;;;14.18;100.00
10852;BME280;5479;52.046;6.314;2023-08-07T06:16:09;101176.38;;;14.17;100.00
10852;BME280;5479;52.046;6.314;2023-08-07T06:18:37;101198.28;;;14.08;100.00
10852;BME280;5479;52.046;6.314;2023-08-07T06:21:05;101199.03;;;14.10;100.00
10852;BME280;5479;52.046;6.314;2023-08-07T06:23:33;101203.81;;;14.05;100.00
10852;BME280;5479;52.046;6.314;2023-08-07T06:26:02;101214.06;;;14.11;100.00
10852;BME280;5479;52.046;6.314;2023-08-07T06:28:32;101200.44;;;14.16;100.00
10852;BME280;5479;52.046;6.314;2023-08-07T06:31:01;101201.06;;;14.07;100.00
10852;BME280;5479;52.046;6.314;2023-08-07T06:33:31;101214.25;;;14.08;100.00
10852;BME280;5479;52.046;6.314;2023-08-07T06:36:00;101214.47;;;14.05;100.00
10852;BME280;5479;52.046;6.314;2023-08-07T06:38:28;101210.00;;;14.06;100.00
10852;BME280;5479;52.046;6.314;2023-08-07T06:40:56;101224.31;;;14.17;100.00
10852;BME280;5479;52.046;6.314;2023-08-07T06:43:24;101226.91;;;14.31;100.00
10852;BME280;5479;52.046;6.314;2023-08-07T06:45:54;101223.66;;;14.26;100.00
10852;BME280;5479;52.046;6.314;2023-08-07T06:48:22;101229.44;;;14.20;100.00
10852;BME280;5479;52.046;6.314;2023-08-07T06:50:52;101229.84;;;14.14;100.00
10852;BME280;5479;52.046;6.314;2023-08-07T06:53:20;101244.84;;;14.15;100.00
10852;BME280;5479;52.046;6.314;2023-08-07T06:55:48;101236.84;;;14.15;100.00
10852;BME280;5479;52.046;6.314;2023-08-07T06:58:16;101234.38;;;14.00;100.00
10852;BME280;5479;52.046;6.314;2023-08-07T07:00:44;101245.34;;;14.08;100.00
10852;BME280;5479;52.046;6.314;2023-08-07T07:03:13;101248.53;;;14.00;100.00
10852;BME280;5479;52.046;6.314;2023-08-07T07:05:41;101259.31;;;13.99;100.00
10852;BME280;5479;52.046;6.314;2023-08-07T07:08:11;101254.47;;;13.91;100.00
10852;BME280;5479;52.046;6.314;2023-08-07T07:10:39;101262.38;;;13.93;100.00
10852;BME280;5479;52.046;6.314;2023-08-07T07:13:07;101255.97;;;13.95;100.00
10852;BME280;5479;52.046;6.314;2023-08-07T07:15:36;101266.44;;;13.98;100.00
10852;BME280;5479;52.046;6.314;2023-08-07T07:18:04;101270.69;;;14.01;100.00
10852;BME280;5479;52.046;6.314;2023-08-07T07:20:33;101273.06;;;14.05;100.00
10852;BME280;5479;52.046;6.314;2023-08-07T07:23:01;101277.03;;;14.12;100.00
10852;BME280;5479;52.046;6.314;2023-08-07T07:25:30;101277.03;;;14.39;100.00
10852;BME280;5479;52.046;6.314;2023-08-07T07:27:58;101284.63;;;14.70;100.00
10852;BME280;5479;52.046;6.314;2023-08-07T07:30:26;101278.78;;;14.65;100.00
10852;BME280;5479;52.046;6.314;2023-08-07T07:32:54;101275.38;;;14.88;100.00
10852;BME280;5479;52.046;6.314;2023-08-07T07:35:22;101280.50;;;15.17;100.00
10852;BME280;5479;52.046;6.314;2023-08-07T07:37:51;101278.97;;;15.50;100.00
10852;BME280;5479;52.046;6.314;2023-08-07T07:40:18;101274.88;;;15.45;100.00
10852;BME280;5479;52.046;6.314;2023-08-07T07:42:51;101271.03;;;16.09;100.00
10852;BME280;5479;52.046;6.314;2023-08-07T07:45:18;101272.91;;;16.19;100.00
10852;BME280;5479;52.046;6.314;2023-08-07T07:47:46;101269.97;;;16.81;100.00
10852;BME280;5479;52.046;6.314;2023-08-07T07:50:18;101276.69;;;16.98;100.00
10852;BME280;5479;52.046;6.314;2023-08-07T07:52:46;101276.41;;;16.78;100.00
10852;BME280;5479;52.046;6.314;2023-08-07T07:55:15;101281.13;;;16.75;100.00
10852;BME280;5479;52.046;6.314;2023-08-07T07:57:44;101283.88;;;17.08;100.00
10852;BME280;5479;52.046;6.314;2023-08-07T08:00:15;101282.13;;;16.96;100.00
10852;BME280;5479;52.046;6.314;2023-08-07T08:02:43;101283.97;;;17.40;100.00
10852;BME280;5479;52.046;6.314;2023-08-07T08:05:11;101280.56;;;17.71;100.00
10852;BME280;5479;52.046;6.314;2023-08-07T08:07:39;101285.41;;;17.88;100.00
10852;BME280;5479;52.046;6.314;2023-08-07T08:10:08;101294.16;;;17.90;100.00
10852;BME280;5479;52.046;6.314;2023-08-07T08:12:36;101290.31;;;17.72;100.00
10852;BME280;5479;52.046;6.314;2023-08-07T08:15:05;101296.66;;;17.38;100.00
10852;BME280;5479;52.046;6.314;2023-08-07T08:17:35;101294.94;;;17.26;100.00
10852;BME280;5479;52.046;6.314;2023-08-07T08:20:02;101296.31;;;17.54;100.00
10852;BME280;5479;52.046;6.314;2023-08-07T08:22:31;101291.91;;;18.91;100.00
10852;BME280;5479;52.046;6.314;2023-08-07T08:25:00;101302.56;;;18.81;100.00
10852;BME280;5479;52.046;6.314;2023-08-07T08:27:28;101291.06;;;19.41;100.00
10852;BME280;5479;52.046;6.314;2023-08-07T08:29:57;101300.03;;;20.49;100.00
10852;BME280;5479;52.046;6.314;2023-08-07T08:32:25;101298.22;;;20.30;100.00
10852;BME280;5479;52.046;6.314;2023-08-07T08:34:54;101304.50;;;20.10;100.00
10852;BME280;5479;52.046;6.314;2023-08-07T08:37:22;101299.88;;;20.69;100.00
10852;BME280;5479;52.046;6.314;2023-08-07T08:39:50;101296.63;;;19.59;100.00
10852;BME280;5479;52.046;6.314;2023-08-07T08:42:19;101315.91;;;18.92;100.00
10852;BME280;5479;52.046;6.314;2023-08-07T08:44:51;101313.50;;;18.68;100.00
10852;BME280;5479;52.046;6.314;2023-08-07T08:47:22;101316.97;;;18.17;100.00
10852;BME280;5479;52.046;6.314;2023-08-07T08:49:58;101315.38;;;18.25;100.00
10852;BME280;5479;52.046;6.314;2023-08-07T08:52:28;101322.25;;;18.39;100.00
10852;BME280;5479;52.046;6.314;2023-08-07T08:54:57;101328.06;;;19.38;100.00
10852;BME280;5479;52.046;6.314;2023-08-07T08:57:25;101332.56;;;19.58;100.00
10852;BME280;5479;52.046;6.314;2023-08-07T08:59:56;101337.47;;;19.53;100.00
10852;BME280;5479;52.046;6.314;2023-08-07T09:02:25;101335.50;;;19.04;100.00
10852;BME280;5479;52.046;6.314;2023-08-07T09:04:54;101328.69;;;19.20;100.00
10852;BME280;5479;52.046;6.314;2023-08-07T09:07:23;101341.78;;;18.93;100.00
10852;BME280;5479;52.046;6.314;2023-08-07T09:09:53;101335.00;;;19.80;100.00
10852;BME280;5479;52.046;6.314;2023-08-07T09:12:26;101340.31;;;19.31;100.00
10852;BME280;5479;52.046;6.314;2023-08-07T09:14:56;101343.22;;;18.77;100.00
10852;BME280;5479;52.046;6.314;2023-08-07T09:17:27;101342.78;;;19.43;100.00
10852;BME280;5479;52.046;6.314;2023-08-07T09:19:56;101340.88;;;20.04;100.00
10852;BME280;5479;52.046;6.314;2023-08-07T09:22:26;101343.28;;;20.07;100.00
10852;BME280;5479;52.046;6.314;2023-08-07T09:24:54;101353.28;;;19.05;100.00
10852;BME280;5479;52.046;6.314;2023-08-07T09:27:22;101347.66;;;19.08;100.00
10852;BME280;5479;52.046;6.314;2023-08-07T09:29:50;101357.13;;;19.33;100.00
10852;BME280;5479;52.046;6.314;2023-08-07T09:32:18;101358.97;;;19.53;100.00
10852;BME280;5479;52.046;6.314;2023-08-07T09:34:49;101349.44;;;19.79;100.00
10852;BME280;5479;52.046;6.314;2023-08-07T09:37:17;101351.56;;;20.25;100.00
10852;BME280;5479;52.046;6.314;2023-08-07T09:39:46;101350.72;;;20.24;100.00
10852;BME280;5479;52.046;6.314;2023-08-07T09:42:18;101359.75;;;21.00;100.00
10852;BME280;5479;52.046;6.314;2023-08-07T09:44:46;101348.59;;;20.47;100.00
10852;BME280;5479;52.046;6.314;2023-08-07T09:47:17;101355.66;;;20.96;96.92
10852;BME280;5479;52.046;6.314;2023-08-07T09:49:46;101350.97;;;20.21;100.00
10852;BME280;5479;52.046;6.314;2023-08-07T09:52:14;101353.13;;;19.48;100.00
10852;BME280;5479;52.046;6.314;2023-08-07T09:54:42;101372.59;;;18.78;100.00
10852;BME280;5479;52.046;6.314;2023-08-07T09:57:13;101366.59;;;18.54;100.00
10852;BME280;5479;52.046;6.314;2023-08-07T09:59:41;101365.38;;;18.58;100.00
10852;BME280;5479;52.046;6.314;2023-08-07T10:02:09;101379.47;;;19.33;100.00
10852;BME280;5479;52.046;6.314;2023-08-07T10:04:38;101370.56;;;20.62;100.00
10852;BME280;5479;52.046;6.314;2023-08-07T10:07:07;101367.44;;;20.57;100.00
10852;BME280;5479;52.046;6.314;2023-08-07T10:09:38;101373.91;;;21.31;97.17
10852;BME280;5479;52.046;6.314;2023-08-07T10:12:07;101372.84;;;20.76;92.32
10852;BME280;5479;52.046;6.314;2023-08-07T10:14:40;101378.13;;;20.18;99.52
10852;BME280;5479;52.046;6.314;2023-08-07T10:17:09;101376.25;;;20.49;94.35
10852;BME280;5479;52.046;6.314;2023-08-07T10:19:38;101385.00;;;21.18;81.77
10852;BME280;5479;52.046;6.314;2023-08-07T10:22:10;101374.72;;;22.32;68.14
10852;BME280;5479;52.046;6.314;2023-08-07T10:24:40;101392.16;;;21.93;68.58
10852;BME280;5479;52.046;6.314;2023-08-07T10:27:11;101391.22;;;20.71;74.63
10852;BME280;5479;52.046;6.314;2023-08-07T10:29:42;101396.53;;;20.23;73.80
10852;BME280;5479;52.046;6.314;2023-08-07T10:32:10;101402.00;;;20.52;74.45
10852;BME280;5479;52.046;6.314;2023-08-07T10:34:39;101406.25;;;19.65;83.99
10852;BME280;5479;52.046;6.314;2023-08-07T10:37:08;101404.63;;;19.83;82.56
10852;BME280;5479;52.046;6.314;2023-08-07T10:39:36;101407.41;;;20.99;86.15
10852;BME280;5479;52.046;6.314;2023-08-07T10:42:05;101402.97;;;21.27;73.05
10852;BME280;5479;52.046;6.314;2023-08-07T10:44:49;101402.72;;;21.11;75.08
10852;BME280;5479;52.046;6.314;2023-08-07T10:47:32;101401.28;;;22.09;71.80
10852;BME280;5479;52.046;6.314;2023-08-07T10:50:00;101411.03;;;23.26;70.41
10852;BME280;5479;52.046;6.314;2023-08-07T10:52:28;101406.44;;;23.01;66.15
10852;BME280;5479;52.046;6.314;2023-08-07T10:54:56;101409.91;;;21.39;66.82
10852;BME280;5479;52.046;6.314;2023-08-07T10:57:31;101419.44;;;20.57;78.80
10852;BME280;5479;52.046;6.314;2023-08-07T11:00:03;101422.66;;;19.41;86.79
10852;BME280;5479;52.046;6.314;2023-08-07T11:02:37;101420.16;;;19.28;91.23
10852;BME280;5479;52.046;6.314;2023-08-07T11:05:06;101412.16;;;20.38;88.09
10852;BME280;5479;52.046;6.314;2023-08-07T11:07:40;101422.06;;;21.43;73.16
10852;BME280;5479;52.046;6.314;2023-08-07T11:10:08;101419.78;;;20.33;81.37
10852;BME280;5479;52.046;6.314;2023-08-07T11:12:41;101420.81;;;20.32;86.01
10852;BME280;5479;52.046;6.314;2023-08-07T11:15:13;101417.31;;;21.18;84.82
10852;BME280;5479;52.046;6.314;2023-08-07T11:17:42;101428.97;;;22.02;80.72
10852;BME280;5479;52.046;6.314;2023-08-07T11:20:10;101426.19;;;23.19;70.77
10852;BME280;5479;52.046;6.314;2023-08-07T11:22:39;101428.34;;;22.62;70.68
10852;BME280;5479;52.046;6.314;2023-08-07T11:25:08;101433.06;;;22.60;71.30
10852;BME280;5479;52.046;6.314;2023-08-07T11:27:40;101430.31;;;23.05;68.43
10852;BME280;5479;52.046;6.314;2023-08-07T11:30:13;101432.53;;;22.74;69.01
10852;BME280;5479;52.046;6.314;2023-08-07T11:32:41;101433.03;;;21.79;70.77
10852;BME280;5479;52.046;6.314;2023-08-07T11:35:09;101431.44;;;20.43;76.66
10852;BME280;5479;52.046;6.314;2023-08-07T11:37:45;101428.56;;;20.26;80.05
10852;BME280;5479;52.046;6.314;2023-08-07T11:40:14;101423.22;;;20.55;83.07
10852;BME280;5479;52.046;6.314;2023-08-07T11:42:42;101421.16;;;21.72;79.49
10852;BME280;5479;52.046;6.314;2023-08-07T11:45:10;101419.41;;;22.44;78.90
10852;BME280;5479;52.046;6.314;2023-08-07T11:47:40;101419.88;;;22.57;68.74
10852;BME280;5479;52.046;6.314;2023-08-07T11:50:09;101423.19;;;22.69;68.67
10852;BME280;5479;52.046;6.314;2023-08-07T11:52:38;101419.91;;;22.48;70.02
10852;BME280;5479;52.046;6.314;2023-08-07T11:55:08;101415.88;;;22.34;70.68
10852;BME280;5479;52.046;6.314;2023-08-07T11:57:38;101413.56;;;22.84;73.16
10852;BME280;5479;52.046;6.314;2023-08-07T12:00:09;101420.06;;;22.73;65.48
10852;BME280;5479;52.046;6.314;2023-08-07T12:02:43;101407.47;;;22.64;73.42
10852;BME280;5479;52.046;6.314;2023-08-07T12:05:11;101419.75;;;22.76;67.41
10852;BME280;5479;52.046;6.314;2023-08-07T12:07:39;101429.34;;;22.44;67.79
10852;BME280;5479;52.046;6.314;2023-08-07T12:10:09;101440.19;;;21.60;70.77
10852;BME280;5479;52.046;6.314;2023-08-07T12:12:37;101431.19;;;21.04;71.05
10852;BME280;5479;52.046;6.314;2023-08-07T12:15:07;101430.75;;;21.93;71.84
10852;BME280;5479;52.046;6.314;2023-08-07T12:17:35;101423.34;;;22.22;71.75
10852;BME280;5479;52.046;6.314;2023-08-07T12:20:06;101433.59;;;21.92;78.18
10852;BME280;5479;52.046;6.314;2023-08-07T12:22:37;101437.50;;;22.79;81.65
10852;BME280;5479;52.046;6.314;2023-08-07T12:25:05;101440.03;;;22.63;78.21
10852;BME280;5479;52.046;6.314;2023-08-07T12:27:33;101436.19;;;22.38;80.82
10852;BME280;5479;52.046;6.314;2023-08-07T12:30:01;101440.34;;;22.50;82.55
10852;BME280;5479;52.046;6.314;2023-08-07T12:32:29;101439.28;;;22.43;85.31
10852;BME280;5479;52.046;6.314;2023-08-07T12:34:57;101438.59;;;22.14;87.63
10852;BME280;5479;52.046;6.314;2023-08-07T12:37:26;101438.44;;;21.88;89.15
10852;BME280;5479;52.046;6.314;2023-08-07T12:39:54;101449.88;;;21.44;100.00
10852;BME280;5479;52.046;6.314;2023-08-07T12:42:22;101447.38;;;21.23;100.00
10852;BME280;5479;52.046;6.314;2023-08-07T12:44:50;101450.69;;;21.54;100.00
10852;BME280;5479;52.046;6.314;2023-08-07T12:47:18;101446.47;;;21.98;97.67
10852;BME280;5479;52.046;6.314;2023-08-07T12:49:46;101444.81;;;21.78;90.58
10852;BME280;5479;52.046;6.314;2023-08-07T12:52:14;101440.41;;;21.30;91.83
10852;BME280;5479;52.046;6.314;2023-08-07T12:54:43;101450.69;;;21.63;86.22
10852;BME280;5479;52.046;6.314;2023-08-07T12:57:11;101441.94;;;21.42;89.66
10852;BME280;5479;52.046;6.314;2023-08-07T12:59:39;101432.19;;;21.78;94.66
10852;BME280;5479;52.046;6.314;2023-08-07T13:02:07;101430.31;;;22.25;89.20